createdAt,value
2022-11-27T00:00:58.894Z,0.38
2022-11-27T00:03:26.330Z,0.47
2022-11-27T00:05:57.474Z,0.50
2022-11-27T00:08:27.558Z,0.30
2022-11-27T00:10:54.339Z,0.40
2022-11-27T00:13:20.996Z,0.40
2022-11-27T00:15:47.716Z,0.47
2022-11-27T00:18:14.434Z,0.40
2022-11-27T00:20:41.065Z,0.40
2022-11-27T00:23:07.745Z,0.50
2022-11-27T00:25:34.989Z,0.40
2022-11-27T00:28:01.654Z,0.60
2022-11-27T00:30:28.286Z,0.43
2022-11-27T00:32:54.891Z,0.47
2022-11-27T00:35:21.529Z,0.47
2022-11-27T00:37:48.179Z,0.57
2022-11-27T00:40:15.642Z,0.50
2022-11-27T00:42:42.271Z,0.63
2022-11-27T00:45:09.581Z,0.80
2022-11-27T00:47:36.173Z,0.75
2022-11-27T00:50:04.335Z,0.80
2022-11-27T00:52:31.254Z,0.77
2022-11-27T00:54:58.049Z,0.60
2022-11-27T00:57:25.972Z,0.63
2022-11-27T00:59:52.590Z,0.70
2022-11-27T01:02:19.199Z,0.70
2022-11-27T01:04:47.189Z,0.70
2022-11-27T01:07:14.000Z,0.90
2022-11-27T01:09:41.110Z,0.90
2022-11-27T01:12:07.907Z,0.80
2022-11-27T01:14:34.998Z,0.90
2022-11-27T01:17:02.129Z,0.60
2022-11-27T01:19:28.742Z,0.60
2022-11-27T01:21:55.415Z,0.90
2022-11-27T01:24:23.481Z,0.95
2022-11-27T01:26:50.812Z,0.90
2022-11-27T01:29:17.742Z,0.88
2022-11-27T01:31:44.643Z,0.93
2022-11-27T01:34:15.373Z,1.15
2022-11-27T01:36:42.270Z,1.00
2022-11-27T01:39:16.204Z,0.93
2022-11-27T01:41:43.265Z,1.15
2022-11-27T01:44:25.090Z,1.63
2022-11-27T01:47:06.111Z,1.40
2022-11-27T01:49:35.937Z,1.83
2022-11-27T01:52:15.515Z,1.60
2022-11-27T01:54:48.340Z,1.63
2022-11-27T01:57:19.149Z,2.17
2022-11-27T01:59:48.167Z,1.65
2022-11-27T02:02:15.111Z,1.60
2022-11-27T02:04:42.045Z,1.83
2022-11-27T02:07:09.298Z,1.60
2022-11-27T02:09:35.973Z,1.65
2022-11-27T02:12:02.572Z,1.50
2022-11-27T02:14:53.610Z,1.92
2022-11-27T02:17:45.980Z,1.75
2022-11-27T02:20:24.669Z,1.10
2022-11-27T02:23:08.026Z,1.45
2022-11-27T02:25:49.645Z,1.00
2022-11-27T02:28:41.091Z,1.27
2022-11-27T02:31:18.825Z,1.00
2022-11-27T02:33:53.157Z,1.60
2022-11-27T02:36:24.365Z,1.30
2022-11-27T02:38:55.632Z,1.02
2022-11-27T02:41:30.574Z,1.40
2022-11-27T02:43:59.945Z,1.05
2022-11-27T02:46:28.900Z,1.38
2022-11-27T02:48:58.750Z,0.98
2022-11-27T02:51:39.155Z,1.05
2022-11-27T02:54:10.294Z,0.80
2022-11-27T02:56:37.391Z,1.70
2022-11-27T02:59:09.917Z,1.38
2022-11-27T03:01:41.318Z,1.30
2022-11-27T03:04:13.257Z,1.00
2022-11-27T03:06:46.458Z,1.15
2022-11-27T03:09:29.427Z,1.10
2022-11-27T03:11:56.482Z,1.00
2022-11-27T03:14:24.897Z,0.88
2022-11-27T03:17:10.185Z,1.63
2022-11-27T03:19:50.603Z,1.55
2022-11-27T03:22:17.797Z,1.88
2022-11-27T03:24:44.685Z,1.65
2022-11-27T03:27:15.416Z,1.42
2022-11-27T03:29:48.709Z,2.05
2022-11-27T03:32:16.090Z,1.50
2022-11-27T03:34:43.552Z,1.50
2022-11-27T03:37:10.462Z,1.50
2022-11-27T03:39:37.293Z,1.88
2022-11-27T03:42:31.433Z,2.03
2022-11-27T03:45:10.168Z,2.00
2022-11-27T03:47:48.995Z,2.00
2022-11-27T03:50:46.433Z,1.88
2022-11-27T03:53:51.295Z,1.55
2022-11-27T03:56:36.146Z,1.90
2022-11-27T03:59:15.450Z,1.60
2022-11-27T04:01:42.644Z,2.60
2022-11-27T04:04:09.631Z,2.00
2022-11-27T04:06:36.371Z,2.72
2022-11-27T04:09:04.056Z,2.83
2022-11-27T04:11:31.090Z,2.72
2022-11-27T04:13:57.997Z,2.50
2022-11-27T04:16:24.681Z,2.47
2022-11-27T04:18:51.467Z,2.70
2022-11-27T04:21:19.004Z,2.45
2022-11-27T04:23:45.782Z,1.73
2022-11-27T04:26:12.785Z,2.80
2022-11-27T04:28:39.445Z,2.25
2022-11-27T04:31:06.123Z,2.08
2022-11-27T04:33:32.961Z,2.83
2022-11-27T04:35:59.689Z,3.35
2022-11-27T04:38:26.285Z,2.60
2022-11-27T04:40:57.810Z,2.60
2022-11-27T04:43:24.516Z,2.20
2022-11-27T04:45:51.166Z,2.08
2022-11-27T04:48:17.821Z,2.40
2022-11-27T04:50:46.794Z,2.00
2022-11-27T04:53:13.442Z,2.00
2022-11-27T04:55:40.110Z,2.90
2022-11-27T04:58:06.774Z,2.70
2022-11-27T05:00:33.529Z,1.65
2022-11-27T05:03:00.364Z,1.92
2022-11-27T05:05:27.002Z,1.90
2022-11-27T05:07:53.760Z,2.35
2022-11-27T05:10:20.500Z,2.30
2022-11-27T05:12:47.152Z,2.28
2022-11-27T05:15:13.799Z,2.08
2022-11-27T05:17:40.434Z,3.45
2022-11-27T05:20:07.937Z,2.63
2022-11-27T05:22:34.573Z,2.40
2022-11-27T05:25:01.234Z,2.78
2022-11-27T05:27:28.969Z,2.03
2022-11-27T05:29:55.549Z,2.30
2022-11-27T05:32:23.591Z,3.67
2022-11-27T05:34:50.492Z,4.00
2022-11-27T05:37:19.627Z,2.58
2022-11-27T05:39:47.422Z,2.38
2022-11-27T05:42:14.191Z,2.47
2022-11-27T05:44:41.038Z,2.72
2022-11-27T05:47:07.903Z,3.08
2022-11-27T05:49:34.651Z,2.70
2022-11-27T05:52:01.239Z,2.67
2022-11-27T05:54:31.530Z,3.08
2022-11-27T05:56:58.146Z,2.70
2022-11-27T05:59:24.750Z,3.60
2022-11-27T06:01:51.410Z,2.72
2022-11-27T06:04:18.342Z,2.83
2022-11-27T06:06:45.082Z,2.60
2022-11-27T06:09:13.496Z,2.47
2022-11-27T06:11:41.433Z,2.97
2022-11-27T06:14:11.525Z,3.50
2022-11-27T06:16:38.458Z,2.60
2022-11-27T06:19:05.115Z,2.47
2022-11-27T06:21:31.777Z,3.55
2022-11-27T06:23:58.520Z,2.78
2022-11-27T06:26:29.074Z,2.42
2022-11-27T06:28:57.270Z,2.88
2022-11-27T06:31:29.906Z,2.10
2022-11-27T06:33:57.450Z,2.75
2022-11-27T06:36:28.360Z,3.58
2022-11-27T06:38:55.488Z,2.95
2022-11-27T06:41:24.807Z,3.08
2022-11-27T06:43:51.651Z,3.90
2022-11-27T06:46:20.389Z,3.65
2022-11-27T06:48:49.124Z,3.03
2022-11-27T06:51:18.357Z,2.72
2022-11-27T06:53:46.463Z,2.63
2022-11-27T06:56:15.538Z,2.85
2022-11-27T06:58:43.329Z,3.45
2022-11-27T07:01:13.746Z,3.03
2022-11-27T07:03:40.888Z,2.83
2022-11-27T07:06:09.779Z,2.65
2022-11-27T07:08:37.103Z,2.70
2022-11-27T07:11:04.680Z,3.22
2022-11-27T07:13:31.570Z,2.95
2022-11-27T07:16:06.809Z,2.63
2022-11-27T07:18:39.770Z,2.63
2022-11-27T07:21:06.411Z,2.15
2022-11-27T07:23:34.138Z,3.50
2022-11-27T07:26:06.450Z,2.80
2022-11-27T07:28:33.337Z,2.90
2022-11-27T07:31:00.482Z,3.72
2022-11-27T07:33:27.258Z,2.97
2022-11-27T07:36:02.634Z,2.50
2022-11-27T07:38:29.278Z,3.15
2022-11-27T07:40:58.948Z,3.33
2022-11-27T07:43:25.549Z,2.33
2022-11-27T07:45:52.345Z,3.20
2022-11-27T07:48:19.119Z,2.72
2022-11-27T07:50:45.832Z,3.00
2022-11-27T07:53:12.448Z,2.58
2022-11-27T07:55:40.530Z,2.60
2022-11-27T07:58:08.482Z,4.00
2022-11-27T08:00:35.863Z,3.03
2022-11-27T08:03:03.245Z,2.42
2022-11-27T08:05:29.992Z,2.67
2022-11-27T08:08:00.024Z,2.97
2022-11-27T08:10:27.152Z,2.78
2022-11-27T08:12:53.819Z,3.30
2022-11-27T08:15:20.498Z,3.03
2022-11-27T08:17:47.841Z,3.28
2022-11-27T08:20:14.434Z,2.90
2022-11-27T08:22:41.164Z,3.38
2022-11-27T08:25:08.362Z,3.15
2022-11-27T08:27:36.303Z,3.67
2022-11-27T08:30:04.434Z,4.28
2022-11-27T08:32:31.280Z,3.63
2022-11-27T08:34:57.940Z,3.42
2022-11-27T08:37:24.604Z,4.00
2022-11-27T08:39:51.277Z,3.55
2022-11-27T08:42:17.931Z,3.30
2022-11-27T08:44:44.552Z,3.80
2022-11-27T08:47:11.211Z,2.67
2022-11-27T08:49:39.800Z,4.85
2022-11-27T08:52:08.234Z,3.03
2022-11-27T08:54:35.119Z,4.25
2022-11-27T08:57:01.872Z,3.80
2022-11-27T08:59:28.484Z,3.67
2022-11-27T09:01:55.150Z,3.47
2022-11-27T09:04:21.838Z,4.97
2022-11-27T09:06:56.825Z,4.60
2022-11-27T09:09:25.079Z,3.80
2022-11-27T09:11:54.494Z,5.50
2022-11-27T09:14:21.286Z,4.13
2022-11-27T09:16:48.142Z,4.80
2022-11-27T09:19:14.887Z,4.03
2022-11-27T09:21:41.497Z,6.07
2022-11-27T09:24:09.330Z,5.28
2022-11-27T09:26:35.966Z,5.40
2022-11-27T09:29:02.833Z,4.22
2022-11-27T09:31:29.579Z,4.38
2022-11-27T09:33:57.863Z,3.65
2022-11-27T09:36:26.372Z,5.97
2022-11-27T09:38:53.629Z,4.32
2022-11-27T09:41:35.785Z,4.30
2022-11-27T09:44:25.938Z,5.63
2022-11-27T09:46:54.517Z,4.35
2022-11-27T09:49:31.906Z,5.05
2022-11-27T09:52:15.584Z,5.82
2022-11-27T09:54:55.095Z,4.22
2022-11-27T09:57:31.285Z,4.85
2022-11-27T10:00:03.917Z,4.00
2022-11-27T10:02:35.406Z,4.63
2022-11-27T10:05:14.029Z,4.22
2022-11-27T10:08:06.942Z,3.65
2022-11-27T10:10:57.133Z,4.18
2022-11-27T10:13:41.894Z,4.30
2022-11-27T10:16:20.667Z,4.45
2022-11-27T10:19:31.590Z,3.85
2022-11-27T10:22:19.470Z,4.57
2022-11-27T10:24:50.404Z,5.65
2022-11-27T10:27:31.949Z,4.20
2022-11-27T10:30:01.530Z,3.45
2022-11-27T10:32:54.584Z,6.85
2022-11-27T10:35:23.627Z,4.80
2022-11-27T10:37:56.211Z,5.60
2022-11-27T10:40:38.606Z,3.75
2022-11-27T10:43:22.225Z,4.28
2022-11-27T10:45:54.062Z,4.88
2022-11-27T10:48:21.149Z,4.80
2022-11-27T10:50:48.282Z,3.97
2022-11-27T10:53:28.801Z,3.95
2022-11-27T10:56:01.654Z,3.58
2022-11-27T10:58:33.715Z,4.20
2022-11-27T11:01:07.103Z,4.43
2022-11-27T11:03:34.690Z,4.93
2022-11-27T11:06:23.659Z,4.15
2022-11-27T11:09:27.181Z,3.08
2022-11-27T11:11:53.909Z,3.78
2022-11-27T11:14:26.455Z,5.18
2022-11-27T11:16:54.824Z,4.07
2022-11-27T11:19:38.034Z,5.70
2022-11-27T11:22:16.340Z,4.47
2022-11-27T11:24:53.471Z,5.50
2022-11-27T11:27:32.427Z,4.65
2022-11-27T11:30:01.124Z,4.55
2022-11-27T11:32:31.513Z,3.65
2022-11-27T11:35:01.782Z,3.78
2022-11-27T11:37:55.153Z,4.72
2022-11-27T11:40:31.229Z,4.68
2022-11-27T11:43:01.635Z,4.93
2022-11-27T11:45:33.333Z,4.88
2022-11-27T11:48:24.035Z,4.63
2022-11-27T11:51:08.558Z,5.60
2022-11-27T11:53:45.538Z,3.92
2022-11-27T11:56:32.973Z,3.85
2022-11-27T12:02:00.907Z,6.13
2022-11-27T12:04:57.443Z,3.63
2022-11-27T12:07:27.905Z,3.80
2022-11-27T12:10:12.676Z,3.58
2022-11-27T12:13:04.787Z,4.28
2022-11-27T12:15:37.321Z,4.82
2022-11-27T12:18:19.393Z,3.80
2022-11-27T12:21:11.217Z,4.78
2022-11-27T12:24:01.667Z,4.88
2022-11-27T12:27:06.125Z,4.68
2022-11-27T12:41:59.013Z,5.00
2022-11-27T12:45:37.002Z,4.47
2022-11-27T13:05:20.762Z,4.72
2022-11-27T13:09:19.708Z,6.90
2022-11-27T13:17:56.648Z,8.05
2022-11-27T13:34:00.186Z,6.82
2022-11-27T13:41:59.398Z,7.45
2022-11-27T13:44:39.480Z,7.13
2022-11-27T13:51:14.355Z,7.28
2022-11-27T13:53:42.762Z,5.05
2022-11-27T13:56:42.972Z,5.65
2022-11-27T14:03:45.342Z,4.95
2022-11-27T14:11:14.293Z,4.20
2022-11-27T14:13:48.628Z,4.75
2022-11-27T14:17:35.557Z,6.47
2022-11-27T14:36:22.264Z,4.90
2022-11-27T14:40:44.128Z,6.32
2022-11-27T14:50:24.026Z,5.57
2022-11-27T14:53:21.553Z,4.82
2022-11-27T14:55:55.473Z,6.25
2022-11-27T14:58:32.404Z,4.60
2022-11-27T15:01:02.478Z,4.13
2022-11-27T15:03:29.768Z,5.30
2022-11-27T15:06:02.099Z,5.30
2022-11-27T15:08:31.903Z,6.30
2022-11-27T15:11:01.038Z,6.00
2022-11-27T15:13:32.717Z,5.45
2022-11-27T15:16:17.961Z,5.63
2022-11-27T15:18:55.356Z,5.00
2022-11-27T15:21:25.931Z,4.90
2022-11-27T15:23:54.831Z,4.95
2022-11-27T15:26:43.416Z,7.22
2022-11-27T15:29:36.342Z,5.88
2022-11-27T15:32:03.602Z,6.93
2022-11-27T15:34:31.021Z,3.88
2022-11-27T15:37:01.538Z,6.13
2022-11-27T15:39:45.655Z,5.38
2022-11-27T15:42:12.580Z,6.97
2022-11-27T15:44:39.431Z,9.02
2022-11-27T15:47:06.909Z,6.32
2022-11-27T15:49:33.643Z,6.55
2022-11-27T15:52:00.496Z,5.63
2022-11-27T15:54:28.152Z,7.68
2022-11-27T15:56:55.120Z,5.72
2022-11-27T15:59:21.952Z,6.68
2022-11-27T16:01:49.813Z,5.70
2022-11-27T16:04:17.615Z,6.03
2022-11-27T16:06:44.378Z,6.82
2022-11-27T16:09:11.104Z,6.03
2022-11-27T16:11:38.821Z,7.35
2022-11-27T16:14:06.059Z,4.97
2022-11-27T16:16:33.301Z,5.40
2022-11-27T16:19:01.360Z,5.97
2022-11-27T16:21:30.157Z,5.97
2022-11-27T16:24:02.114Z,6.47
2022-11-27T16:26:29.594Z,6.20
2022-11-27T16:28:56.345Z,5.28
2022-11-27T16:31:24.105Z,4.75
2022-11-27T16:33:54.330Z,5.38
2022-11-27T16:36:24.415Z,5.40
2022-11-27T16:38:55.408Z,4.65
2022-11-27T16:41:23.680Z,5.65
2022-11-27T16:43:55.998Z,4.63
2022-11-27T16:46:28.363Z,5.75
2022-11-27T16:48:57.397Z,5.97
2022-11-27T16:51:29.038Z,5.10
2022-11-27T16:53:58.878Z,5.20
2022-11-27T16:56:27.581Z,5.93
2022-11-27T16:58:59.381Z,5.47
2022-11-27T17:01:34.695Z,4.40
2022-11-27T17:04:04.876Z,4.43
2022-11-27T17:06:33.707Z,5.28
2022-11-27T17:09:02.273Z,7.28
2022-11-27T17:11:35.486Z,5.88
2022-11-27T17:14:05.828Z,4.32
2022-11-27T17:16:33.840Z,6.93
2022-11-27T17:19:00.823Z,5.47
2022-11-27T17:21:31.643Z,6.28
2022-11-27T17:24:00.415Z,5.68
2022-11-27T17:26:29.717Z,8.45
2022-11-27T17:28:56.688Z,5.13
2022-11-27T17:31:31.289Z,5.40
2022-11-27T17:33:58.695Z,5.55
2022-11-27T17:36:27.946Z,6.40
2022-11-27T17:38:54.897Z,5.85
2022-11-27T17:41:21.696Z,5.97
2022-11-27T17:43:50.320Z,4.95
2022-11-27T17:46:20.482Z,5.75
2022-11-27T17:48:48.556Z,5.93
2022-11-27T17:51:15.249Z,5.70
2022-11-27T17:53:41.952Z,6.55
2022-11-27T17:56:11.896Z,7.10
2022-11-27T17:58:39.371Z,6.22
2022-11-27T18:01:08.309Z,7.53
2022-11-27T18:03:35.024Z,8.15
2022-11-27T18:06:06.263Z,7.25
2022-11-27T18:08:33.559Z,7.55
2022-11-27T18:11:09.263Z,7.05
2022-11-27T18:13:36.490Z,9.63
2022-11-27T18:16:05.308Z,6.10
2022-11-27T18:18:31.993Z,6.60
2022-11-27T18:20:59.948Z,5.88
2022-11-27T18:23:27.493Z,5.43
2022-11-27T18:25:54.366Z,7.60
2022-11-27T18:28:21.144Z,5.70
2022-11-27T18:30:47.800Z,5.75
2022-11-27T18:33:14.448Z,6.88
2022-11-27T18:35:42.839Z,6.03
2022-11-27T18:38:09.598Z,5.13
2022-11-27T18:40:41.171Z,6.50
2022-11-27T18:43:07.973Z,6.65
2022-11-27T18:45:36.434Z,5.93
2022-11-27T18:48:04.633Z,5.70
2022-11-27T18:50:31.915Z,6.47
2022-11-27T18:52:58.589Z,7.15
2022-11-27T18:55:25.962Z,8.95
2022-11-27T18:57:54.271Z,6.85
2022-11-27T19:00:21.315Z,7.07
2022-11-27T19:02:48.147Z,6.63
2022-11-27T19:05:14.941Z,7.47
2022-11-27T19:07:43.664Z,7.38
2022-11-27T19:10:10.696Z,5.65
2022-11-27T19:12:37.469Z,6.03
2022-11-27T19:15:06.610Z,6.60
2022-11-27T19:17:33.621Z,5.50
2022-11-27T19:20:00.382Z,5.00
2022-11-27T19:22:27.131Z,5.50
2022-11-27T19:24:53.884Z,6.95
2022-11-27T19:27:20.536Z,6.05
2022-11-27T19:29:47.161Z,6.57
2022-11-27T19:32:13.914Z,5.05
2022-11-27T19:34:42.228Z,5.35
2022-11-27T19:37:09.194Z,5.93
2022-11-27T19:39:35.866Z,6.15
2022-11-27T19:42:07.164Z,7.65
2022-11-27T19:44:34.712Z,7.40
2022-11-27T19:47:02.074Z,7.93
2022-11-27T19:49:29.078Z,7.43
2022-11-27T19:51:55.852Z,7.60
2022-11-27T19:54:22.693Z,8.20
2022-11-27T19:56:49.637Z,6.95
2022-11-27T19:59:19.134Z,6.00
2022-11-27T20:01:48.186Z,7.20
2022-11-27T20:04:15.689Z,6.10
2022-11-27T20:06:42.416Z,6.75
2022-11-27T20:09:09.103Z,6.90
2022-11-27T20:11:36.476Z,5.95
2022-11-27T20:14:04.391Z,5.63
2022-11-27T20:16:32.959Z,6.13
2022-11-27T20:19:08.758Z,7.47
2022-11-27T20:21:37.509Z,7.25
2022-11-27T20:24:06.480Z,6.38
2022-11-27T20:26:37.210Z,7.05
2022-11-27T20:29:06.948Z,6.85
2022-11-27T20:31:36.106Z,5.68
2022-11-27T20:34:04.976Z,6.10
2022-11-27T20:36:33.852Z,4.93
2022-11-27T20:39:01.196Z,6.22
2022-11-27T20:41:28.407Z,6.45
2022-11-27T20:43:58.127Z,5.45
2022-11-27T20:46:26.418Z,6.95
2022-11-27T20:48:54.044Z,5.45
2022-11-27T20:51:25.218Z,5.85
2022-11-27T20:53:51.918Z,6.07
2022-11-27T20:56:20.336Z,6.28
2022-11-27T20:58:58.139Z,6.25
2022-11-27T21:01:31.935Z,6.28
2022-11-27T21:04:01.234Z,5.88
2022-11-27T21:06:30.629Z,5.50
2022-11-27T21:09:00.899Z,7.13
2022-11-27T21:11:29.169Z,4.47
2022-11-27T21:14:01.379Z,5.50
2022-11-27T21:16:32.088Z,6.38
2022-11-27T21:19:00.703Z,5.68
2022-11-27T21:21:35.104Z,6.45
2022-11-27T21:24:03.605Z,6.10
2022-11-27T21:26:30.355Z,6.68
2022-11-27T21:28:57.034Z,6.50
2022-11-27T21:31:26.678Z,4.70
2022-11-27T21:33:58.353Z,6.50
2022-11-27T21:36:28.068Z,5.90
2022-11-27T21:38:54.836Z,5.47
2022-11-27T21:41:21.917Z,4.47
2022-11-27T21:43:49.549Z,4.90
2022-11-27T21:46:19.079Z,5.43
2022-11-27T21:48:47.755Z,5.55
2022-11-27T21:51:15.468Z,6.88
2022-11-27T21:53:43.968Z,5.65
2022-11-27T21:56:14.038Z,5.85
2022-11-27T21:58:41.537Z,5.90
2022-11-27T22:01:12.210Z,5.88
2022-11-27T22:03:42.462Z,6.03
2022-11-27T22:06:12.835Z,5.90
2022-11-27T22:08:40.578Z,7.38
2022-11-27T22:11:13.712Z,5.88
2022-11-27T22:13:41.566Z,5.55
2022-11-27T22:16:10.547Z,5.38
2022-11-27T22:18:37.290Z,5.70
2022-11-27T22:21:08.272Z,6.80
2022-11-27T22:23:37.283Z,4.72
2022-11-27T22:26:05.986Z,5.88
2022-11-27T22:28:34.897Z,4.72
2022-11-27T22:31:08.034Z,5.22
2022-11-27T22:33:37.020Z,6.22
2022-11-27T22:36:25.132Z,5.25
2022-11-27T22:38:54.349Z,6.10
2022-11-27T22:41:24.167Z,5.78
2022-11-27T22:43:51.581Z,8.23
2022-11-27T22:46:25.469Z,5.93
2022-11-27T22:48:58.264Z,6.78
2022-11-27T22:51:26.927Z,5.22
2022-11-27T22:53:54.904Z,6.60
2022-11-27T22:56:21.781Z,6.50
2022-11-27T22:58:48.440Z,6.78
2022-11-27T23:01:18.426Z,5.70
2022-11-27T23:03:45.499Z,6.28
2022-11-27T23:06:14.611Z,6.82
2022-11-27T23:08:43.604Z,7.13
2022-11-27T23:11:13.806Z,6.72
2022-11-27T23:13:43.855Z,6.03
2022-11-27T23:16:15.704Z,6.57
2022-11-27T23:18:42.444Z,6.70
2022-11-27T23:21:14.497Z,6.50
2022-11-27T23:23:41.843Z,7.30
2022-11-27T23:26:17.397Z,8.15
2022-11-27T23:28:45.727Z,7.45
2022-11-27T23:31:33.610Z,8.05
2022-11-27T23:34:02.121Z,7.18
2022-11-27T23:36:30.016Z,8.55
2022-11-27T23:39:01.871Z,8.38
2022-11-27T23:41:29.188Z,8.40
2022-11-27T23:43:58.084Z,7.75
2022-11-27T23:46:27.491Z,7.57
2022-11-27T23:48:57.838Z,7.43
2022-11-27T23:51:27.976Z,7.72
2022-11-27T23:53:57.365Z,7.85
2022-11-27T23:56:27.157Z,7.72
2022-11-27T23:58:54.975Z,7.45
